Wolston, United Kingdom
Current Conditions -  °F | °C
As of 9:50 AM on Wednesday 26 Nov 2014 (Local Time) from EGBE Reporting Station
Drizzle Drizzle  
Wind Chill: 44°   Ceiling: 600
Heat Index: 46°   Visibility: 2.1mi
Dew Point: 45°   Wind: 6mph
Humidity: 93%   Direction: 40°NE
Pressure: 29.88"   Gusts: NA
Location:  52.38°N, 1.4°W
Report Text: EGBE 260950Z 04005KT 3500 -DZ BR FEW002 BKN006 OVC011 08/07 Q1012
Loading
Personal Weather Stations






























Interactive Weather Map New forecast layout! Learn more

10-Day Weather Forecast

Advertisements
Track Severe Weather on mobile